メインページ
METAR-TAF:

METAR-TAF

空港 :

エセンボーア国際空港

アンカラ-エセンボーア, トルコ

緯度: 40-07N, 経度: 032-59E, 海抜: 953m

現時点の気象観測

当レポートは44分前の05:50(UTC)に作成
変向風 2kt
気温 3°C
湿度 87%
気圧 1020 hPa
視程10km以上
1,500メートル以下は雲なし、積乱雲なし

METAR: LTAC 040550Z VRB02KT CAVOK 03/01 Q1020 NOSIG RMK RWY21L VRB02KT RWY03L VRB01KT RWY21R VRB02KT

時間: 09:34 (06:34 UTC)

予報

当レポートは1時間54分前の04:40(UTC)に作成
予報は04日の 06時(UTC)から 05日の 06時(UTC)まで有効
変向風 2kt
視程10km以上
1,500メートル以下は雲なし、積乱雲なし
04日の 06時(UTC)から 04日の 09時(UTC)まで徐々に
高度4000ftの雲は散在している
高度10000ftの千切れ雲あり
04日の 16時(UTC)から 04日の 20時(UTC)まで一時的に
高度3000ftの千切れ雲あり
高度8000ftの千切れ雲あり
弱いにわか雨
04日の 21時(UTC)から 04日の 24時(UTC)まで徐々に
高度3000ftの千切れ雲あり
高度8000ftの千切れ雲あり
弱いにわか雨

TAF: LTAC 040440Z 0406/0506 VRB02KT CAVOK BECMG 0406/0409 SCT040 BKN100 TEMPO 0416/0420 -SHRA BKN030 BKN080 BECMG 0421/0424 -SHRA BKN030 BKN080

4,000以上の空港の気象観測と天気予報(METAR報とTAF報)

利用可能な観測所は地図上に黄色い丸と赤い丸で示す。

丸の上にカーソルを重ねると観測所名を参照できる。

次にクリックすると気象観測と天気予報を参照できる。

マップの切り替え:黒色「×」印の緑ボタンをクリックして拡大、「-」印の緑ボタンをクリックして縮小、緑色の三角印をクリックして隣りの地図に切り替え


METAR-TAF: